Aérodrome :
LOGIN :

S'inscrire | Disclaimer

   EN    FR    IT 

 










Légende :    VFR   VFR Marginal   IFR   IFR Intensif   IFR Très Intensif
Visi : 
Plafond : 
>= 8 km
>= 3000ft
5 à 8 km
1000 à 3000 ft
1500m à 5 km
500 à 1000 ft
800 à 1500m
200 à 500 ft
< 800m
< 200 ft
Symboles :   Orages  Brouillard  Fortes neiges  Fortes précipitations  Vent > 20 kt
SIGMETs :   Divers  Orages  Givrage  Turbulence  Onde Orograph.  Cendres Volcan.







- Altitude de l'aérodrome : 204 ft
- Code IATA : AGF
- Voir les cartes d'approche


LFBA - Agen

DERNIER METAR :
  • 280630Z AUTO 26006KT 220V300 9999 BKN011/// OVC042/// ///TCU 18/16 Q1005 TEMPO 4000 SHRA SCT015 BKN030

METARs EXPIRÉS :
  • 280600Z AUTO 24006KT 210V280 9999 -RA SCT009/// BKN015/// BKN047/// ///TCU 17/16 Q1005 BECMG SCT015 BKN030
  • 280530Z AUTO 23006KT 200V270 9999 -RA BKN016/// BKN033/// BKN062/// ///CB 17/16 Q1005 BECMG SCT015 BKN030
  • 280500Z AUTO 25005KT 220V290 9999 -RA BKN012/// BKN017/// BKN027/// ///TCU 17/16 Q1005
  • 280430Z AUTO 24007KT 220V280 9999 -RA SCT016/// BKN033/// BKN044/// ///TCU 17/15 Q1005
  • 280400Z AUTO 24007KT 200V270 9999 -RA SCT017/// BKN030/// BKN040/// ///TCU 17/15 Q1005

TAF AMD TAF LFBA
Valide du 28 à 06h jusqu'au 28 à 15h UTC


280650Z 2806/2815 24008KT 9999 SCT012 BKN030
TEMPO 2806/2809 BKN009
TEMPO 2809/2815 27010G20KT 4000 SHRA BKN014 BKN030TCU
PROB40
TEMPO 2813/2815 27018G30KT 4000 TSRA BKN014 BKN030CB
Pas de NOTAMs connus pour ce terrain.



MET'MAP, la Météo Aéronautique d'un coup d'oeil ! - Copyright ORBIFLY Décembre 2007 - Disclaimer

ORBIFLY MET'MAP TEAM :

Programmation & Développement : Alexandra Zaïnal
Conception & Développement : Baudouin d'Aumeries
Co-Programmation & Développement : Marc-Olivier Méhu
Soutien technique & logistique : Manuel Goepfert

Contact : metmap@orbifly.com




SOURCES & CREDITS :

   NOAA